Time;durP1;ratioP1;P1;durP2;ratioP2;P2;SDS_P1;SDS_P2;PMS_P1;PMS_P2;Temp;Humidity;BMP_temperature;BMP_pressure;BME280_temperature;BME280_humidity;BME280_pressure;Samples;Min_cycle;Max_cycle;Signal;HPM_P1;HPM_P2
2021/01/27 00:02:11;;;;;;;25.00;16.77;;;1.90;97.00;;;;;;5110959;27;20656;-78
2021/01/27 00:04:37;;;;;;;25.83;17.33;;;1.80;96.90;;;;;;5110484;28;20208;-78
2021/01/27 00:07:03;;;;;;;24.70;17.10;;;1.80;97.00;;;;;;5108802;28;20416;-78
2021/01/27 00:09:29;;;;;;;22.70;16.48;;;1.90;97.00;;;;;;5110228;28;20171;-78
2021/01/27 00:11:55;;;;;;;23.92;16.58;;;1.90;97.00;;;;;;5109003;28;20659;-78
2021/01/27 00:14:21;;;;;;;27.42;17.85;;;1.90;96.80;;;;;;5107983;28;20187;-78
2021/01/27 00:16:46;;;;;;;21.83;17.07;;;1.90;96.80;;;;;;5110163;27;20176;-78
2021/01/27 00:19:12;;;;;;;23.53;17.73;;;1.90;96.70;;;;;;5110029;28;20215;-78
2021/01/27 00:21:38;;;;;;;25.90;18.00;;;1.90;97.40;;;;;;5108288;28;20188;-78
2021/01/27 00:24:04;;;;;;;23.98;17.92;;;1.90;96.70;;;;;;5109890;28;20679;-78
2021/01/27 00:26:30;;;;;;;26.02;17.75;;;1.90;96.90;;;;;;5109565;28;20179;-78
2021/01/27 00:28:56;;;;;;;24.03;17.40;;;1.90;97.50;;;;;;5108332;28;20626;-78
2021/01/27 00:31:21;;;;;;;25.20;18.13;;;1.90;97.40;;;;;;5108520;28;20172;-78
2021/01/27 00:33:47;;;;;;;25.63;18.60;;;1.90;97.40;;;;;;5110135;28;20531;-78
2021/01/27 00:36:12;;;;;;;26.20;17.10;;;1.90;97.50;;;;;;5107996;28;20184;-78
2021/01/27 00:38:38;;;;;;;26.00;17.80;;;1.90;97.50;;;;;;5109514;28;20568;-78
2021/01/27 00:41:04;;;;;;;24.43;18.17;;;1.90;97.30;;;;;;5109309;28;20184;-78
2021/01/27 00:43:30;;;;;;;22.43;16.47;;;1.90;97.40;;;;;;5108979;28;20222;-78
2021/01/27 00:45:56;;;;;;;24.10;17.90;;;1.90;97.60;;;;;;5109173;28;21354;-78
2021/01/27 00:48:22;;;;;;;27.53;18.40;;;1.90;97.50;;;;;;5109390;28;20168;-78
2021/01/27 00:50:48;;;;;;;23.42;16.92;;;1.90;97.70;;;;;;5109399;28;20567;-78
2021/01/27 00:53:14;;;;;;;25.08;17.50;;;1.90;97.80;;;;;;5109665;28;20233;-78
2021/01/27 00:55:40;;;;;;;21.83;17.13;;;1.90;98.00;;;;;;5108871;28;20198;-78
2021/01/27 00:58:06;;;;;;;24.87;16.23;;;1.90;98.20;;;;;;5108963;28;20583;-78
2021/01/27 01:00:35;;;;;;;24.30;17.17;;;1.90;98.40;;;;;;5108354;28;20836;-78
2021/01/27 01:03:01;;;;;;;25.40;17.60;;;1.90;98.60;;;;;;5109524;28;20168;-78
2021/01/27 01:05:36;;;;;;;24.25;16.42;;;1.90;98.60;;;;;;5107101;28;20552;-78
2021/01/27 01:08:04;;;;;;;27.48;18.08;;;1.90;98.80;;;;;;5108416;28;20188;-79
2021/01/27 01:10:36;;;;;;;23.60;17.33;;;1.80;99.00;;;;;;5109114;28;20203;-78
2021/01/27 01:13:04;;;;;;;21.20;16.38;;;1.80;99.00;;;;;;5108881;28;20180;-78
2021/01/27 01:15:30;;;;;;;26.83;16.08;;;1.70;99.20;;;;;;5108947;28;20612;-78
2021/01/27 01:17:56;;;;;;;23.70;16.90;;;1.80;99.50;;;;;;5107671;28;20179;-78
2021/01/27 01:20:23;;;;;;;26.35;18.33;;;1.80;99.60;;;;;;5107267;28;20922;-78
2021/01/27 01:22:51;;;;;;;23.83;16.92;;;1.80;99.70;;;;;;5107647;28;20184;-78
2021/01/27 01:25:20;;;;;;;24.25;17.83;;;1.80;99.80;;;;;;5108613;28;20322;-78
2021/01/27 01:27:45;;;;;;;26.95;17.67;;;1.70;99.90;;;;;;5109104;28;20168;-78
2021/01/27 01:30:16;;;;;;;24.90;16.97;;;1.70;99.90;;;;;;5108822;28;20221;-78
2021/01/27 01:32:42;;;;;;;26.20;17.88;;;1.70;99.90;;;;;;5107930;28;20179;-78
2021/01/27 01:35:09;;;;;;;25.30;17.87;;;1.70;99.90;;;;;;5108089;28;20491;-78
2021/01/27 01:37:35;;;;;;;24.08;16.77;;;1.70;99.90;;;;;;5108072;28;20394;-79
2021/01/27 01:40:04;;;;;;;27.15;17.90;;;1.70;99.90;;;;;;5106680;28;20700;-78
2021/01/27 01:42:30;;;;;;;28.15;18.20;;;1.70;99.90;;;;;;5106924;28;20187;-78
2021/01/27 01:44:55;;;;;;;29.47;18.37;;;1.80;99.90;;;;;;5108146;28;20459;-78
2021/01/27 01:47:21;;;;;;;21.80;16.60;;;1.80;99.90;;;;;;5108428;28;20194;-78
2021/01/27 01:49:49;;;;;;;24.67;18.10;;;1.80;99.90;;;;;;5107334;28;20167;-78
2021/01/27 01:52:15;;;;;;;25.27;16.95;;;1.90;99.90;;;;;;5107947;28;20720;-78
2021/01/27 01:54:46;;;;;;;26.40;17.75;;;1.90;99.90;;;;;;5108644;28;20640;-78
2021/01/27 01:57:17;;;;;;;27.98;18.65;;;1.90;99.90;;;;;;5107881;28;20223;-78
2021/01/27 01:59:52;;;;;;;24.02;16.42;;;1.90;99.90;;;;;;5108514;28;20188;-78
2021/01/27 02:02:20;;;;;;;26.35;16.90;;;1.90;99.90;;;;;;5107341;28;20210;-78
2021/01/27 02:04:53;;;;;;;25.13;15.93;;;1.90;99.90;;;;;;5108280;28;20203;-78
2021/01/27 02:07:19;;;;;;;23.92;16.42;;;1.90;99.90;;;;;;5106694;28;20222;-79
2021/01/27 02:09:45;;;;;;;26.50;17.38;;;2.00;99.90;;;;;;5106384;28;20221;-78
2021/01/27 02:12:32;;;;;;;26.13;17.00;;;1.90;99.90;;;;;;5107475;28;20172;-78
2021/01/27 02:15:28;;;;;;;23.73;16.48;;;1.90;99.90;;;;;;5107504;28;20175;-78
2021/01/27 02:17:53;;;;;;;25.15;17.67;;;1.90;99.90;;;;;;5106419;28;20172;-77
2021/01/27 02:20:37;;;;;;;24.60;17.33;;;1.90;99.90;;;;;;5107098;28;20532;-78
2021/01/27 02:23:34;;;;;;;22.67;16.17;;;1.90;99.90;;;;;;5106401;28;20632;-78
2021/01/27 02:26:08;;;;;;;24.70;17.50;;;1.90;99.90;;;;;;5106895;28;20188;-78
2021/01/27 02:28:57;;;;;;;22.08;15.65;;;1.90;99.90;;;;;;5107910;28;20172;-78
2021/01/27 02:32:00;;;;;;;25.55;16.42;;;1.90;99.90;;;;;;5106026;28;20629;-78
2021/01/27 02:35:03;;;;;;;22.10;16.40;;;1.90;99.90;;;;;;5106831;28;20967;-78
2021/01/27 02:37:37;;;;;;;22.33;16.42;;;1.90;99.90;;;;;;5107048;28;20231;-79
2021/01/27 02:40:11;;;;;;;23.70;16.10;;;1.90;99.90;;;;;;5106241;28;20189;-78
2021/01/27 02:42:41;;;;;;;24.60;16.40;;;1.90;99.90;;;;;;5107095;28;20215;-78
2021/01/27 02:45:18;;;;;;;21.75;16.10;;;1.90;99.90;;;;;;5107753;28;20211;-78
2021/01/27 02:48:08;;;;;;;21.67;15.15;;;1.90;99.90;;;;;;5107512;28;20534;-78
2021/01/27 02:50:51;;;;;;;28.48;16.80;;;1.90;99.90;;;;;;5106028;28;20651;-79
2021/01/27 02:53:21;;;;;;;21.77;15.95;;;2.00;99.90;;;;;;5106805;28;20174;-79
2021/01/27 02:55:58;;;;;;;26.50;17.48;;;2.00;99.90;;;;;;5106450;28;20626;-78
2021/01/27 02:58:43;;;;;;;22.98;16.30;;;2.00;99.90;;;;;;5105399;28;20201;-78
2021/01/27 03:01:18;;;;;;;24.27;16.10;;;2.00;99.90;;;;;;5107316;28;20159;-78
2021/01/27 03:03:50;;;;;;;24.75;16.35;;;2.00;99.90;;;;;;5106964;28;20218;-79
2021/01/27 03:06:18;;;;;;;20.60;15.32;;;2.00;99.90;;;;;;5107230;28;20531;-79
2021/01/27 03:09:12;;;;;;;24.27;16.90;;;2.00;99.90;;;;;;5105815;28;20615;-79
2021/01/27 03:11:37;;;;;;;23.52;17.30;;;2.00;99.90;;;;;;5086666;28;20196;-78
2021/01/27 03:14:04;;;;;;;24.40;16.90;;;2.00;99.90;;;;;;5105625;28;20191;-79
2021/01/27 03:16:42;;;;;;;28.80;18.45;;;2.00;99.90;;;;;;5106560;28;20210;-78
2021/01/27 03:19:19;;;;;;;28.30;17.10;;;2.00;99.90;;;;;;5106841;28;20195;-79
2021/01/27 03:21:57;;;;;;;27.52;16.88;;;2.00;99.90;;;;;;5107176;28;20163;-78
2021/01/27 03:24:24;;;;;;;24.20;18.00;;;2.00;99.90;;;;;;5106725;28;20211;-78
2021/01/27 03:27:00;;;;;;;25.67;17.25;;;2.00;99.90;;;;;;5106635;28;20179;-78
2021/01/27 03:29:52;;;;;;;25.38;16.27;;;2.00;99.90;;;;;;5108955;28;20578;-79
2021/01/27 03:32:48;;;;;;;24.33;16.45;;;2.00;99.90;;;;;;5110927;28;20535;-78
2021/01/27 03:35:38;;;;;;;21.98;16.25;;;2.00;99.90;;;;;;5109511;28;20180;-79
2021/01/27 03:38:15;;;;;;;25.35;17.80;;;2.00;99.90;;;;;;5110497;28;20175;-78
2021/01/27 03:40:44;;;;;;;23.17;17.38;;;2.00;99.90;;;;;;5089202;28;20727;-79
2021/01/27 03:43:21;;;;;;;22.15;17.08;;;2.00;99.90;;;;;;5087948;28;20176;-78
2021/01/27 03:45:49;;;;;;;23.42;16.67;;;2.00;99.90;;;;;;5090036;28;20620;-78
2021/01/27 03:48:35;;;;;;;26.60;19.02;;;2.00;99.90;;;;;;5086906;28;20264;-79
2021/01/27 03:51:02;;;;;;;22.05;16.33;;;2.00;99.90;;;;;;5085767;28;20184;-79
2021/01/27 03:53:30;;;;;;;24.40;17.00;;;1.90;99.90;;;;;;5089959;28;20263;-79
2021/01/27 03:56:21;;;;;;;23.48;17.38;;;1.90;99.90;;;;;;5089801;28;20238;-78
2021/01/27 03:58:48;;;;;;;26.30;17.27;;;1.90;99.90;;;;;;5090293;28;20629;-78
2021/01/27 04:01:16;;;;;;;24.67;18.35;;;1.90;99.90;;;;;;5089571;28;20600;-79
2021/01/27 04:03:42;;;;;;;28.42;17.77;;;1.80;99.90;;;;;;5090013;28;20200;-78
2021/01/27 04:06:08;;;;;;;25.35;18.02;;;1.80;99.90;;;;;;5090083;28;20535;-79
2021/01/27 04:08:35;;;;;;;27.67;18.48;;;1.70;99.90;;;;;;5089803;28;20211;-78
2021/01/27 04:11:02;;;;;;;26.25;18.00;;;1.70;99.90;;;;;;5089753;28;20763;-79
2021/01/27 04:13:29;;;;;;;25.60;18.52;;;1.70;99.90;;;;;;5089386;28;20195;-79
2021/01/27 04:15:55;;;;;;;26.25;18.90;;;1.70;99.90;;;;;;5089360;28;20697;-78
2021/01/27 04:18:20;;;;;;;27.07;18.33;;;1.60;99.90;;;;;;5089002;28;20180;-78
2021/01/27 04:20:46;;;;;;;27.27;18.97;;;1.60;99.90;;;;;;5089774;28;20415;-78
2021/01/27 04:23:12;;;;;;;26.33;18.13;;;1.60;99.90;;;;;;5089440;28;20187;-79
2021/01/27 04:25:38;;;;;;;27.07;18.77;;;1.60;99.90;;;;;;5089475;28;20184;-78
2021/01/27 04:28:04;;;;;;;26.65;18.75;;;1.60;99.90;;;;;;5087665;28;20570;-78
2021/01/27 04:30:31;;;;;;;26.58;17.95;;;1.50;99.90;;;;;;5089706;28;20237;-79
2021/01/27 04:32:59;;;;;;;29.27;19.80;;;1.50;99.90;;;;;;5086303;28;20487;-79
2021/01/27 04:35:25;;;;;;;27.23;19.60;;;1.50;99.90;;;;;;5099752;28;20202;-78
2021/01/27 04:37:51;;;;;;;32.05;20.60;;;1.50;99.90;;;;;;5109505;28;20274;-79
2021/01/27 04:40:35;;;;;;;31.50;19.63;;;1.40;99.90;;;;;;5107378;28;20711;-78
2021/01/27 04:43:02;;;;;;;30.38;18.63;;;1.60;99.90;;;;;;5108349;28;20184;-78
2021/01/27 04:45:28;;;;;;;30.05;19.23;;;1.70;99.90;;;;;;5110137;28;20220;-78
2021/01/27 04:48:25;;;;;;;31.90;19.60;;;1.60;99.90;;;;;;5109264;28;20189;-78
2021/01/27 04:51:02;;;;;;;31.50;19.85;;;1.70;99.90;;;;;;5108523;28;20167;-79
2021/01/27 04:53:53;;;;;;;27.90;18.02;;;1.70;99.90;;;;;;5107801;28;20639;-78
2021/01/27 04:56:35;;;;;;;32.92;20.33;;;1.60;99.90;;;;;;5108850;28;20266;-78
2021/01/27 04:59:16;;;;;;;28.80;19.48;;;1.60;99.90;;;;;;5108735;28;20176;-78
2021/01/27 05:01:57;;;;;;;31.20;20.42;;;1.60;99.90;;;;;;5108895;27;20544;-79
2021/01/27 05:04:47;;;;;;;29.75;18.92;;;1.60;99.90;;;;;;5108753;28;20207;-79
2021/01/27 05:07:23;;;;;;;32.90;21.05;;;1.50;99.90;;;;;;5108150;28;20156;-78
2021/01/27 05:10:00;;;;;;;33.20;22.30;;;1.50;99.90;;;;;;5109282;28;20532;-78
2021/01/27 05:12:36;;;;;;;32.33;20.83;;;1.40;99.90;;;;;;5107600;28;20680;-78
2021/01/27 05:15:03;;;;;;;36.97;22.83;;;1.20;99.90;;;;;;5109669;28;20390;-78
2021/01/27 05:17:29;;;;;;;33.38;22.85;;;1.20;99.90;;;;;;5108940;28;20210;-78
2021/01/27 05:19:55;;;;;;;33.67;22.27;;;1.10;99.90;;;;;;5109376;28;20183;-78
2021/01/27 05:22:21;;;;;;;34.70;21.40;;;1.00;99.90;;;;;;5105675;28;20320;-78
2021/01/27 05:24:47;;;;;;;32.58;20.80;;;1.00;99.90;;;;;;5108874;28;20212;-78
2021/01/27 05:27:31;;;;;;;33.03;21.73;;;1.00;99.90;;;;;;5108734;27;20168;-78
2021/01/27 05:30:03;;;;;;;31.20;20.75;;;0.90;99.90;;;;;;5106933;28;20183;-78
2021/01/27 05:32:45;;;;;;;33.10;20.20;;;0.90;99.90;;;;;;5108436;28;20159;-79
2021/01/27 05:35:24;;;;;;;30.10;16.45;;;1.70;99.90;;;;;;5106772;28;20179;-78
2021/01/27 05:37:50;;;;;;;30.95;18.90;;;3.00;99.90;;;;;;5107842;28;20188;-78
2021/01/27 05:40:33;;;;;;;31.03;18.43;;;3.60;99.20;;;;;;5108596;28;20670;-78
2021/01/27 05:43:13;;;;;;;25.65;14.52;;;4.10;98.50;;;;;;5107898;28;20186;-78
2021/01/27 05:45:42;;;;;;;29.63;19.38;;;4.40;96.80;;;;;;5108483;28;20192;-78
2021/01/27 05:48:34;;;;;;;29.02;18.90;;;2.50;97.20;;;;;;5107923;28;20164;-78
2021/01/27 05:51:06;;;;;;;26.95;18.35;;;1.90;98.50;;;;;;5102420;28;20660;-78
2021/01/27 05:53:32;;;;;;;27.20;17.52;;;1.50;99.00;;;;;;5107950;28;20180;-79
2021/01/27 05:55:58;;;;;;;27.25;19.67;;;1.40;99.20;;;;;;5106872;28;20711;-79
2021/01/27 05:58:25;;;;;;;27.07;19.77;;;1.30;99.50;;;;;;5106818;28;20187;-79
2021/01/27 06:00:51;;;;;;;29.35;20.95;;;1.00;99.90;;;;;;5107805;28;20182;-78
2021/01/27 06:03:24;;;;;;;33.45;21.70;;;0.80;99.90;;;;;;5106580;28;20573;-78
2021/01/27 06:05:51;;;;;;;28.13;19.27;;;0.70;99.90;;;;;;5107159;28;20481;-78
2021/01/27 06:08:22;;;;;;;29.77;20.05;;;0.70;99.90;;;;;;5109212;28;20179;-78
2021/01/27 06:10:49;;;;;;;29.60;20.13;;;0.70;99.90;;;;;;5112221;28;20219;-78
2021/01/27 06:13:27;;;;;;;31.23;20.05;;;0.60;99.90;;;;;;5111494;28;20176;-78
2021/01/27 06:15:54;;;;;;;30.02;20.73;;;0.70;99.90;;;;;;5111540;28;20511;-78
2021/01/27 06:18:23;;;;;;;39.65;23.90;;;0.70;99.90;;;;;;5110471;28;20168;-78
2021/01/27 06:20:59;;;;;;;36.67;23.77;;;0.60;99.90;;;;;;5112674;28;20180;-78
2021/01/27 06:23:27;;;;;;;33.92;22.40;;;0.60;99.90;;;;;;5111484;28;20274;-78
2021/01/27 06:25:56;;;;;;;56.85;30.98;;;0.60;99.90;;;;;;5110235;28;20187;-78
2021/01/27 06:28:54;;;;;;;57.00;32.10;;;0.60;99.90;;;;;;5111143;28;20208;-78
2021/01/27 06:31:57;;;;;;;38.97;24.92;;;0.60;99.90;;;;;;5111549;28;20175;-78
2021/01/27 06:34:43;;;;;;;39.70;25.85;;;0.60;99.90;;;;;;5111745;28;20175;-78
2021/01/27 06:37:54;;;;;;;38.85;25.15;;;0.60;99.90;;;;;;5111826;28;20631;-79
2021/01/27 06:40:48;;;;;;;46.85;27.77;;;0.60;99.90;;;;;;5110433;28;20640;-79
2021/01/27 06:43:34;;;;;;;35.53;24.77;;;0.50;99.90;;;;;;5111847;28;20164;-79
2021/01/27 06:46:31;;;;;;;38.40;24.85;;;0.60;99.90;;;;;;5111710;28;20160;-79
2021/01/27 06:49:34;;;;;;;36.42;24.67;;;0.60;99.90;;;;;;5110167;28;20183;-79
2021/01/27 06:52:09;;;;;;;45.28;28.25;;;0.60;99.90;;;;;;5111305;28;20256;-79
2021/01/27 06:55:00;;;;;;;36.47;23.33;;;0.70;99.90;;;;;;5111520;28;20175;-79
2021/01/27 06:57:57;;;;;;;36.63;22.02;;;0.70;99.90;;;;;;5100320;28;20231;-79
2021/01/27 07:00:51;;;;;;;35.90;24.40;;;0.70;99.90;;;;;;5102564;28;20180;-79
2021/01/27 07:03:40;;;;;;;36.45;23.25;;;0.70;99.90;;;;;;5104502;28;20863;-79
2021/01/27 07:06:15;;;;;;;36.40;21.77;;;0.80;99.90;;;;;;5105442;28;20164;-80
2021/01/27 07:09:17;;;;;;;37.17;24.23;;;0.80;99.90;;;;;;5106030;28;20189;-79
2021/01/27 07:12:02;;;;;;;37.13;26.38;;;0.80;99.90;;;;;;5106087;28;20610;-79
2021/01/27 07:14:44;;;;;;;37.53;24.25;;;0.80;99.90;;;;;;5105429;28;20178;-79
2021/01/27 07:17:21;;;;;;;37.25;23.67;;;0.90;99.90;;;;;;5103659;28;20183;-79
2021/01/27 07:20:06;;;;;;;33.33;23.30;;;1.00;99.90;;;;;;5121845;28;20533;-79
2021/01/27 07:23:00;;;;;;;30.70;21.02;;;1.20;99.90;;;;;;5106377;28;20317;-79
2021/01/27 07:25:41;;;;;;;32.53;22.92;;;1.30;99.90;;;;;;5097738;28;20208;-79
2021/01/27 07:28:13;;;;;;;32.38;23.20;;;1.50;99.90;;;;;;5105082;28;20258;-79
2021/01/27 07:30:57;;;;;;;36.25;23.92;;;1.50;99.70;;;;;;5094519;28;20188;-79
2021/01/27 07:33:35;;;;;;;31.70;21.90;;;1.70;99.00;;;;;;5100548;28;20168;-78
2021/01/27 07:36:13;;;;;;;33.38;22.23;;;1.80;98.90;;;;;;5100215;28;20179;-79
2021/01/27 07:38:39;;;;;;;36.15;23.33;;;1.90;98.60;;;;;;5103169;28;20177;-79
2021/01/27 07:41:11;;;;;;;30.63;22.17;;;2.10;97.90;;;;;;5091900;28;20657;-78
2021/01/27 07:43:45;;;;;;;32.40;22.75;;;2.00;98.30;;;;;;5089869;28;20256;-80
2021/01/27 07:46:16;;;;;;;35.40;24.48;;;2.00;98.30;;;;;;5105577;28;20187;-79
2021/01/27 07:49:00;;;;;;;35.20;22.77;;;2.10;98.00;;;;;;5093036;28;20274;-79
2021/01/27 07:51:30;;;;;;;36.22;23.92;;;2.30;98.50;;;;;;5094884;28;20267;-79
2021/01/27 07:54:04;;;;;;;41.05;26.27;;;2.80;96.30;;;;;;5104838;28;20651;-78
2021/01/27 07:56:39;;;;;;;38.22;25.63;;;2.70;96.70;;;;;;5105668;28;20242;-79
2021/01/27 07:59:45;;;;;;;31.30;23.88;;;2.80;96.70;;;;;;5097753;28;20180;-79
2021/01/27 08:02:20;;;;;;;31.73;21.25;;;3.10;96.00;;;;;;5087739;28;20240;-79
2021/01/27 08:05:08;;;;;;;33.08;25.15;;;3.30;95.70;;;;;;5102136;28;20631;-80
2021/01/27 08:07:42;;;;;;;35.15;24.27;;;3.50;95.20;;;;;;5106116;28;20191;-79
2021/01/27 08:10:25;;;;;;;28.88;20.35;;;3.60;94.80;;;;;;5094748;28;20663;-80
2021/01/27 08:12:53;;;;;;;29.08;22.02;;;3.90;94.40;;;;;;5106220;28;20691;-79
2021/01/27 08:15:25;;;;;;;28.98;22.50;;;4.00;94.30;;;;;;5105340;27;20183;-79
2021/01/27 08:17:59;;;;;;;28.63;22.60;;;4.30;93.10;;;;;;5114906;27;20185;-79
2021/01/27 08:20:26;;;;;;;27.48;21.80;;;4.50;93.00;;;;;;5099715;27;20504;-79
2021/01/27 08:23:28;;;;;;;32.67;23.60;;;4.70;92.90;;;;;;5101409;28;20195;-80
2021/01/27 08:26:05;;;;;;;24.83;20.00;;;5.10;92.80;;;;;;5102385;28;20199;-79
2021/01/27 08:28:37;;;;;;;26.50;20.88;;;5.50;90.90;;;;;;5099601;28;20184;-79
2021/01/27 08:31:09;;;;;;;27.42;22.02;;;5.70;90.70;;;;;;5107560;27;20223;-79
2021/01/27 08:33:46;;;;;;;25.45;20.45;;;5.90;89.90;;;;;;5100714;27;20570;-79
2021/01/27 08:36:28;;;;;;;24.67;21.55;;;5.80;90.00;;;;;;5108323;27;20576;-79
2021/01/27 08:38:57;;;;;;;27.88;20.98;;;5.70;89.50;;;;;;5090384;28;20508;-79
2021/01/27 08:42:01;;;;;;;25.88;20.08;;;5.70;88.60;;;;;;5101140;28;20250;-79
2021/01/27 08:44:30;;;;;;;29.73;23.05;;;5.80;89.00;;;;;;5092565;28;20559;-79
2021/01/27 08:47:16;;;;;;;26.98;21.35;;;5.90;88.40;;;;;;5112249;27;20243;-79
2021/01/27 08:49:44;;;;;;;30.38;22.85;;;5.80;88.60;;;;;;5102277;27;20576;-79
2021/01/27 08:52:10;;;;;;;25.65;21.65;;;5.90;88.60;;;;;;5109544;27;20643;-79
2021/01/27 08:54:41;;;;;;;30.87;24.80;;;6.00;87.60;;;;;;5111323;27;20194;-79
2021/01/27 08:57:21;;;;;;;44.13;29.73;;;6.20;86.80;;;;;;5108400;27;20230;-80
2021/01/27 09:00:08;;;;;;;40.50;31.38;;;6.10;87.90;;;;;;5096958;28;20195;-79
2021/01/27 09:02:52;;;;;;;34.95;26.85;;;6.00;87.80;;;;;;5108465;27;20274;-80
2021/01/27 09:05:36;;;;;;;50.45;37.75;;;5.90;87.30;;;;;;5097191;28;20207;-79
2021/01/27 09:08:10;;;;;;;33.38;25.70;;;5.90;88.90;;;;;;5109463;27;20224;-80
2021/01/27 09:10:38;;;;;;;41.00;27.67;;;5.90;88.30;;;;;;5107361;27;20180;-79
2021/01/27 09:13:30;;;;;;;31.77;24.65;;;6.10;86.80;;;;;;5107550;28;20172;-79
2021/01/27 09:16:04;;;;;;;32.47;26.75;;;6.20;86.80;;;;;;5104747;28;20698;-80
2021/01/27 09:18:31;;;;;;;32.83;25.55;;;6.30;86.00;;;;;;5104514;27;20196;-79
2021/01/27 09:21:08;;;;;;;36.83;26.98;;;6.40;83.60;;;;;;5107780;27;20195;-80
2021/01/27 09:23:34;;;;;;;34.35;25.50;;;6.70;81.60;;;;;;5106800;27;20210;-80
2021/01/27 09:26:03;;;;;;;37.53;28.83;;;7.00;81.20;;;;;;5107522;27;20186;-80
2021/01/27 09:28:29;;;;;;;29.98;21.80;;;7.20;80.40;;;;;;5107667;27;20650;-79
2021/01/27 09:30:56;;;;;;;30.20;22.55;;;7.50;80.50;;;;;;5108105;27;20259;-79
2021/01/27 09:33:35;;;;;;;26.90;22.48;;;7.80;78.00;;;;;;5102237;27;20522;-80
2021/01/27 09:36:10;;;;;;;24.63;20.40;;;7.80;76.40;;;;;;5100622;28;20184;-79
2021/01/27 09:38:36;;;;;;;25.73;19.58;;;7.90;76.90;;;;;;5102534;28;20720;-80
2021/01/27 09:41:14;;;;;;;23.67;18.85;;;7.90;76.10;;;;;;5099771;28;20211;-79
2021/01/27 09:43:46;;;;;;;25.50;19.77;;;7.80;74.90;;;;;;5096381;28;20258;-79
2021/01/27 09:46:25;;;;;;;23.42;19.98;;;7.70;74.60;;;;;;5100778;28;20271;-79
2021/01/27 09:48:54;;;;;;;26.10;20.77;;;7.60;75.80;;;;;;5100442;28;20184;-79
2021/01/27 09:51:20;;;;;;;23.90;19.65;;;7.60;75.30;;;;;;5107709;27;20179;-79
2021/01/27 09:53:46;;;;;;;22.42;18.33;;;7.60;75.30;;;;;;5109561;28;20182;-79
2021/01/27 09:56:18;;;;;;;24.58;19.33;;;8.00;74.30;;;;;;5108028;28;20615;-79
2021/01/27 09:58:44;;;;;;;22.83;19.88;;;7.80;75.10;;;;;;5111512;27;20257;-79
2021/01/27 10:01:22;;;;;;;28.30;21.15;;;7.80;74.90;;;;;;5113314;27;20195;-79
2021/01/27 10:03:54;;;;;;;29.02;21.30;;;7.70;77.80;;;;;;5105810;27;20211;-80
2021/01/27 10:06:37;;;;;;;27.58;21.75;;;7.80;77.30;;;;;;5102373;28;20180;-79
2021/01/27 10:09:20;;;;;;;26.52;20.15;;;7.90;77.60;;;;;;5100506;28;20271;-79
2021/01/27 10:11:48;;;;;;;27.08;22.08;;;7.90;77.90;;;;;;5106853;28;20635;-79
2021/01/27 10:14:26;;;;;;;28.95;22.25;;;8.00;76.10;;;;;;5098208;28;20185;-79
2021/01/27 10:17:01;;;;;;;23.95;20.60;;;8.10;77.10;;;;;;5098792;28;20549;-79
2021/01/27 10:19:31;;;;;;;23.88;18.90;;;8.10;77.20;;;;;;5091457;28;20190;-79
2021/01/27 10:21:59;;;;;;;29.13;22.02;;;8.00;75.30;;;;;;5117581;27;20215;-79
2021/01/27 10:24:50;;;;;;;26.17;21.17;;;8.10;73.70;;;;;;5095981;28;20356;-79
2021/01/27 10:27:24;;;;;;;22.98;19.30;;;8.10;74.30;;;;;;5107171;28;20176;-79
2021/01/27 10:29:51;;;;;;;22.08;19.48;;;7.90;72.60;;;;;;5105639;28;20172;-79
2021/01/27 10:32:33;;;;;;;25.95;20.45;;;7.80;74.70;;;;;;5105930;28;20175;-79
2021/01/27 10:35:01;;;;;;;23.02;19.60;;;7.80;73.70;;;;;;5096741;28;20237;-79
2021/01/27 10:37:43;;;;;;;23.90;19.23;;;7.70;76.00;;;;;;5106403;28;20217;-79
2021/01/27 10:40:32;;;;;;;25.40;20.60;;;7.70;74.90;;;;;;5107214;28;20179;-79
2021/01/27 10:43:00;;;;;;;23.38;17.42;;;7.70;78.20;;;;;;5098205;28;20281;-79
2021/01/27 10:45:40;;;;;;;22.73;17.48;;;7.50;78.00;;;;;;5099223;28;20226;-80
2021/01/27 10:48:13;;;;;;;23.77;17.83;;;7.60;75.80;;;;;;5106739;28;20236;-79
2021/01/27 10:50:47;;;;;;;22.75;17.52;;;7.80;76.00;;;;;;5098154;28;20249;-80
2021/01/27 10:53:15;;;;;;;20.70;17.13;;;7.80;76.80;;;;;;5109595;28;20670;-79
2021/01/27 10:55:45;;;;;;;22.45;17.25;;;8.20;73.40;;;;;;5110272;27;20187;-79
2021/01/27 10:58:16;;;;;;;26.80;18.92;;;8.10;72.00;;;;;;5111681;27;20666;-79
2021/01/27 11:00:43;;;;;;;23.75;18.98;;;8.00;74.60;;;;;;5104963;27;20414;-79
2021/01/27 11:03:09;;;;;;;25.30;19.33;;;7.70;74.00;;;;;;5110005;28;20183;-79
2021/01/27 11:05:36;;;;;;;24.27;18.85;;;7.40;76.70;;;;;;5110477;27;20207;-79
2021/01/27 11:08:06;;;;;;;27.17;19.17;;;7.30;77.50;;;;;;5104669;28;20180;-79
2021/01/27 11:10:32;;;;;;;24.88;20.50;;;7.40;76.10;;;;;;5095284;28;20663;-79
2021/01/27 11:12:59;;;;;;;27.38;20.15;;;7.20;77.20;;;;;;5104692;28;20237;-79
2021/01/27 11:15:25;;;;;;;25.13;17.40;;;7.10;78.80;;;;;;5095455;28;20548;-79
2021/01/27 11:17:51;;;;;;;22.83;17.45;;;6.90;80.00;;;;;;5105401;28;20205;-79
2021/01/27 11:20:22;;;;;;;25.23;18.15;;;6.90;78.10;;;;;;5094417;28;20191;-79
2021/01/27 11:22:48;;;;;;;24.35;19.25;;;6.70;77.50;;;;;;5102279;28;20287;-79
2021/01/27 11:25:23;;;;;;;24.95;19.17;;;6.40;80.30;;;;;;5094957;28;20290;-79
2021/01/27 11:27:49;;;;;;;28.25;22.65;;;6.10;80.20;;;;;;5103168;28;20651;-79
2021/01/27 11:30:18;;;;;;;28.50;21.10;;;5.90;82.30;;;;;;5094962;28;20239;-79
2021/01/27 11:32:43;;;;;;;25.40;18.67;;;5.80;84.30;;;;;;5104617;28;20533;-79
2021/01/27 11:35:10;;;;;;;26.77;18.97;;;5.70;84.80;;;;;;5095760;28;20187;-79
2021/01/27 11:37:35;;;;;;;27.83;19.85;;;5.60;84.90;;;;;;5104188;28;20191;-79
2021/01/27 11:40:02;;;;;;;24.23;18.43;;;5.60;86.90;;;;;;5105310;28;20180;-79
2021/01/27 11:42:28;;;;;;;24.17;18.48;;;5.50;85.40;;;;;;5095808;28;20191;-78
2021/01/27 11:44:54;;;;;;;24.50;17.63;;;5.40;87.00;;;;;;5095906;28;20203;-79
2021/01/27 11:47:20;;;;;;;23.83;17.92;;;5.30;86.70;;;;;;5104649;28;20182;-79
2021/01/27 11:49:46;;;;;;;27.53;17.50;;;5.30;87.70;;;;;;5101684;28;20183;-79
2021/01/27 11:52:12;;;;;;;22.73;17.40;;;5.20;85.70;;;;;;5100374;27;20301;-79
2021/01/27 11:54:42;;;;;;;29.70;21.92;;;5.10;86.00;;;;;;5102007;27;20183;-80
2021/01/27 11:57:08;;;;;;;23.13;16.85;;;5.10;86.90;;;;;;5109562;27;20246;-79
2021/01/27 11:59:34;;;;;;;23.38;18.30;;;5.00;87.40;;;;;;5105113;27;20546;-80
2021/01/27 12:02:01;;;;;;;40.75;24.38;;;5.00;88.80;;;;;;5105120;28;20293;-79
2021/01/27 12:04:27;;;;;;;57.25;30.20;;;4.80;90.10;;;;;;5107395;28;20751;-79
2021/01/27 12:06:52;;;;;;;43.40;23.50;;;4.80;90.70;;;;;;5106598;28;20341;-80
2021/01/27 12:09:18;;;;;;;39.73;24.67;;;4.80;90.60;;;;;;5102639;27;20176;-80
2021/01/27 12:11:44;;;;;;;22.93;16.47;;;5.10;90.90;;;;;;5101140;27;20183;-79
2021/01/27 12:14:09;;;;;;;26.27;17.40;;;5.40;88.60;;;;;;5100767;28;20438;-80
2021/01/27 12:16:35;;;;;;;26.57;18.53;;;5.50;86.80;;;;;;5109082;27;20196;-79
2021/01/27 12:19:01;;;;;;;23.03;16.57;;;5.60;88.10;;;;;;5106617;28;20563;-79
2021/01/27 12:21:26;;;;;;;24.00;16.77;;;5.40;88.60;;;;;;5106104;27;20239;-79
2021/01/27 12:23:52;;;;;;;19.20;15.20;;;5.40;88.00;;;;;;5103022;27;20364;-80
2021/01/27 12:26:18;;;;;;;24.00;16.00;;;5.30;88.80;;;;;;5100459;27;20214;-79
2021/01/27 12:28:44;;;;;;;18.20;14.50;;;5.20;88.70;;;;;;5109797;27;20180;-79
2021/01/27 12:31:12;;;;;;;17.45;14.07;;;5.10;89.50;;;;;;5109139;27;20651;-79
2021/01/27 12:33:38;;;;;;;20.35;15.57;;;5.00;89.80;;;;;;5103062;27;20173;-80
2021/01/27 12:36:04;;;;;;;16.30;13.13;;;5.00;90.10;;;;;;5105382;27;20180;-79
2021/01/27 12:38:29;;;;;;;15.45;12.48;;;5.10;89.60;;;;;;5106316;28;20567;-79
2021/01/27 12:40:55;;;;;;;18.80;13.97;;;5.10;89.30;;;;;;5106882;27;20215;-79
2021/01/27 12:43:21;;;;;;;15.30;11.75;;;5.00;89.20;;;;;;5107914;27;20263;-80
2021/01/27 12:45:47;;;;;;;16.70;13.87;;;5.00;89.70;;;;;;5103698;27;20186;-80
2021/01/27 12:48:13;;;;;;;15.80;12.03;;;5.10;88.60;;;;;;5112447;27;20274;-79
2021/01/27 12:50:38;;;;;;;20.60;13.80;;;5.20;89.00;;;;;;5103806;28;20173;-79
2021/01/27 12:53:04;;;;;;;15.87;12.33;;;5.20;88.50;;;;;;5111290;27;20394;-80
2021/01/27 12:55:30;;;;;;;16.50;13.23;;;5.30;88.00;;;;;;5112072;27;20190;-80
2021/01/27 12:57:56;;;;;;;19.37;13.03;;;5.30;87.10;;;;;;5109467;28;20231;-79
2021/01/27 13:00:24;;;;;;;16.50;13.65;;;5.20;86.60;;;;;;5092399;27;20504;-79
2021/01/27 13:02:55;;;;;;;20.25;15.80;;;5.20;87.00;;;;;;5107614;27;20655;-81
2021/01/27 13:05:25;;;;;;;33.05;20.63;;;5.20;87.50;;;;;;5106094;28;20602;-80
2021/01/27 13:07:51;;;;;;;30.13;18.48;;;5.20;85.20;;;;;;5094012;28;20445;-79